Time;durP1;ratioP1;P1;durP2;ratioP2;P2;SDS_P1;SDS_P2;PMS_P1;PMS_P2;Temp;Humidity;BMP_temperature;BMP_pressure;BME280_temperature;BME280_humidity;BME280_pressure;Samples;Min_cycle;Max_cycle;Signal;HPM_P1;HPM_P2
2023/02/03 00:00:49;;;;;;;7.27;2.43;;;;;;;;;;5102973;28;20187;-73
2023/02/03 00:03:15;;;;;;;11.87;2.87;;;;;;;;;;5105267;28;20171;-73
2023/02/03 00:05:40;;;;;;;15.17;3.03;;;;;;;;;;5105487;28;20191;-73
2023/02/03 00:08:06;;;;;;;6.70;2.60;;;;;;;;;;5086817;28;20172;-74
2023/02/03 00:10:35;;;;;;;13.80;3.10;;;;;;;;;;5102512;28;22085;-76
2023/02/03 00:13:01;;;;;;;9.33;2.43;;;;;;;;;;5098395;28;20164;-73
2023/02/03 00:15:26;;;;;;;13.40;3.40;;;;;;;;;;5098579;28;20172;-74
2023/02/03 00:17:51;;;;;;;7.97;2.50;;;;;;;;;;5087324;28;20688;-72
2023/02/03 00:20:16;;;;;;;9.00;2.67;;;;;;;;;;5109801;22;21021;-71
2023/02/03 00:22:41;;;;;;;12.17;2.80;;;;;;;;;;5094849;28;20206;-72
2023/02/03 00:25:07;;;;;;;8.87;3.00;;;;;;;;;;5092444;28;20739;-72
2023/02/03 00:27:32;;;;;;;13.43;4.37;;;;;;;;;;5093221;28;20181;-72
2023/02/03 00:29:57;;;;;;;11.97;2.50;;;;;;;;;;5088995;28;20266;-72
2023/02/03 00:32:23;;;;;;;11.33;2.70;;;;;;;;;;5114574;27;20243;-72
2023/02/03 00:34:48;;;;;;;10.57;3.27;;;;;;;;;;5111074;27;20167;-72
2023/02/03 00:37:13;;;;;;;7.93;2.83;;;;;;;;;;5115513;27;20175;-72
2023/02/03 00:39:38;;;;;;;15.57;3.83;;;;;;;;;;5105578;28;20203;-71
2023/02/03 00:42:04;;;;;;;13.33;2.70;;;;;;;;;;5106280;27;20204;-73
2023/02/03 00:44:29;;;;;;;13.10;2.70;;;;;;;;;;5113123;27;20179;-73
2023/02/03 00:46:54;;;;;;;6.50;2.50;;;;;;;;;;5109883;27;20234;-73
2023/02/03 00:49:20;;;;;;;11.20;2.87;;;;;;;;;;5087728;28;20172;-73
2023/02/03 00:51:45;;;;;;;9.43;4.30;;;;;;;;;;5102424;28;20287;-73
2023/02/03 00:54:10;;;;;;;7.20;2.47;;;;;;;;;;5103404;28;20178;-72
2023/02/03 00:56:35;;;;;;;13.47;4.37;;;;;;;;;;5098533;28;20182;-72
2023/02/03 00:59:00;;;;;;;10.83;2.80;;;;;;;;;;5101046;28;20207;-72
2023/02/03 01:01:26;;;;;;;9.00;2.87;;;;;;;;;;5104729;28;20206;-71
2023/02/03 01:03:53;;;;;;;7.87;2.60;;;;;;;;;;5104194;28;20181;-71
2023/02/03 01:06:19;;;;;;;9.90;2.53;;;;;;;;;;5086306;28;20525;-71
2023/02/03 01:08:45;;;;;;;11.17;2.30;;;;;;;;;;5101085;28;20618;-72
2023/02/03 01:11:16;;;;;;;7.43;2.93;;;;;;;;;;5103224;28;20286;-72
2023/02/03 01:13:41;;;;;;;9.80;3.33;;;;;;;;;;5101970;28;20187;-72
2023/02/03 01:16:07;;;;;;;11.40;3.20;;;;;;;;;;5102578;28;20230;-72
2023/02/03 01:18:32;;;;;;;9.03;2.83;;;;;;;;;;5101351;28;20212;-74
2023/02/03 01:21:03;;;;;;;9.33;2.53;;;;;;;;;;5104100;28;20203;-72
2023/02/03 01:23:28;;;;;;;9.07;2.60;;;;;;;;;;5099347;28;20175;-71
2023/02/03 01:25:53;;;;;;;8.17;3.00;;;;;;;;;;5112253;28;20657;-72
2023/02/03 01:28:18;;;;;;;11.90;2.63;;;;;;;;;;5082680;28;20185;-71
2023/02/03 01:30:44;;;;;;;7.70;2.70;;;;;;;;;;5101462;28;20220;-72
2023/02/03 01:33:09;;;;;;;8.73;2.20;;;;;;;;;;5093106;28;20180;-72
2023/02/03 01:35:35;;;;;;;10.50;2.27;;;;;;;;;;5105376;28;20541;-72
2023/02/03 01:38:00;;;;;;;6.23;1.77;;;;;;;;;;5088316;28;20179;-72
2023/02/03 01:40:25;;;;;;;7.83;2.83;;;;;;;;;;5108981;28;20195;-73
2023/02/03 01:42:50;;;;;;;7.77;2.00;;;;;;;;;;5110473;28;20179;-73
2023/02/03 01:45:18;;;;;;;11.37;1.90;;;;;;;;;;5108601;28;20180;-72
2023/02/03 01:47:51;;;;;;;6.90;2.20;;;;;;;;;;5107441;28;20531;-72
2023/02/03 01:50:18;;;;;;;7.03;2.33;;;;;;;;;;5102146;28;20203;-72
2023/02/03 01:52:46;;;;;;;6.43;1.90;;;;;;;;;;5101714;28;20809;-72
2023/02/03 01:55:15;;;;;;;9.27;2.37;;;;;;;;;;5103072;28;20258;-72
2023/02/03 01:57:48;;;;;;;6.53;2.90;;;;;;;;;;5077828;28;20229;-72
2023/02/03 02:00:13;;;;;;;6.07;1.97;;;;;;;;;;5103124;28;20337;-72
2023/02/03 02:02:39;;;;;;;3.90;1.30;;;;;;;;;;5107441;28;20171;-72
2023/02/03 02:05:17;;;;;;;8.80;1.47;;;;;;;;;;5108446;28;20569;-72
2023/02/03 02:07:43;;;;;;;6.80;1.50;;;;;;;;;;5105988;28;20189;-72
2023/02/03 02:10:09;;;;;;;6.10;1.50;;;;;;;;;;5108236;28;20210;-72
2023/02/03 02:12:34;;;;;;;3.10;1.60;;;;;;;;;;5108962;28;20179;-73
2023/02/03 02:14:59;;;;;;;8.20;1.83;;;;;;;;;;5107042;28;20180;-72
2023/02/03 02:17:43;;;;;;;3.97;1.73;;;;;;;;;;5105859;28;20205;-72
2023/02/03 02:20:14;;;;;;;5.33;1.60;;;;;;;;;;5105634;28;20588;-71
2023/02/03 02:22:58;;;;;;;8.63;1.40;;;;;;;;;;5105717;27;20186;-72
2023/02/03 02:25:42;;;;;;;6.20;1.37;;;;;;;;;;5099640;27;20179;-72
2023/02/03 02:28:13;;;;;;;7.70;2.47;;;;;;;;;;5116919;27;20214;-72
2023/02/03 02:31:05;;;;;;;5.67;1.93;;;;;;;;;;5106450;27;20206;-72
2023/02/03 02:33:30;;;;;;;2.43;1.17;;;;;;;;;;5081358;28;20192;-72
2023/02/03 02:35:55;;;;;;;5.13;1.57;;;;;;;;;;5109751;27;20664;-72
2023/02/03 02:38:23;;;;;;;7.87;1.90;;;;;;;;;;5110381;28;20200;-72
2023/02/03 02:41:09;;;;;;;7.27;2.20;;;;;;;;;;5111929;28;20195;-72
2023/02/03 02:43:37;;;;;;;8.23;1.70;;;;;;;;;;5108468;27;20168;-72
2023/02/03 02:46:07;;;;;;;4.60;1.40;;;;;;;;;;5114668;28;20232;-72
2023/02/03 02:48:36;;;;;;;5.10;1.57;;;;;;;;;;5112551;27;20184;-71
2023/02/03 02:51:03;;;;;;;6.27;1.30;;;;;;;;;;5102687;28;20644;-71
2023/02/03 02:53:32;;;;;;;3.07;1.07;;;;;;;;;;5105337;28;20852;-70
2023/02/03 02:55:59;;;;;;;4.43;1.37;;;;;;;;;;5105565;28;20300;-70
2023/02/03 02:58:26;;;;;;;3.00;1.53;;;;;;;;;;5100995;28;20199;-70
2023/02/03 03:00:51;;;;;;;6.87;1.80;;;;;;;;;;5106370;28;20191;-71
2023/02/03 03:03:18;;;;;;;6.27;1.67;;;;;;;;;;5106329;28;20178;-74
2023/02/03 03:05:49;;;;;;;5.27;1.50;;;;;;;;;;5102803;28;20173;-72
2023/02/03 03:08:18;;;;;;;4.10;1.57;;;;;;;;;;5098541;28;20160;-73
2023/02/03 03:10:43;;;;;;;9.23;2.63;;;;;;;;;;5104474;28;20208;-73
2023/02/03 03:13:11;;;;;;;10.03;1.97;;;;;;;;;;5088005;28;20178;-72
2023/02/03 03:15:37;;;;;;;7.63;1.93;;;;;;;;;;5106704;28;20198;-72
2023/02/03 03:18:02;;;;;;;4.03;1.40;;;;;;;;;;5106568;28;20657;-72
2023/02/03 03:20:28;;;;;;;33.03;3.60;;;;;;;;;;5105678;28;20217;-72
2023/02/03 03:22:56;;;;;;;7.80;1.63;;;;;;;;;;5111651;28;20238;-72
2023/02/03 03:25:24;;;;;;;7.47;1.90;;;;;;;;;;5106488;28;20199;-72
2023/02/03 03:27:53;;;;;;;3.60;1.50;;;;;;;;;;5105313;28;20186;-72
2023/02/03 03:30:23;;;;;;;5.33;1.87;;;;;;;;;;5110981;27;20203;-72
2023/02/03 03:32:49;;;;;;;6.20;1.50;;;;;;;;;;5112042;28;20180;-72
2023/02/03 03:35:14;;;;;;;5.50;1.57;;;;;;;;;;5112544;28;20560;-71
2023/02/03 03:37:45;;;;;;;8.07;2.87;;;;;;;;;;5113038;27;20225;-72
2023/02/03 03:40:22;;;;;;;5.87;1.53;;;;;;;;;;5107796;27;20211;-72
2023/02/03 03:42:57;;;;;;;11.93;2.10;;;;;;;;;;5113347;27;20270;-72
2023/02/03 03:45:30;;;;;;;6.70;1.50;;;;;;;;;;5102667;28;20184;-71
2023/02/03 03:48:10;;;;;;;5.60;1.53;;;;;;;;;;5114873;27;20175;-72
2023/02/03 03:50:41;;;;;;;5.30;1.80;;;;;;;;;;5110062;28;20211;-72
2023/02/03 03:53:08;;;;;;;3.90;1.27;;;;;;;;;;5106447;28;20637;-72
2023/02/03 03:55:34;;;;;;;5.90;1.37;;;;;;;;;;5118095;27;20191;-73
2023/02/03 03:58:05;;;;;;;3.93;1.27;;;;;;;;;;5091713;28;20169;-73
2023/02/03 04:00:32;;;;;;;4.43;1.07;;;;;;;;;;5108729;28;20524;-73
2023/02/03 04:03:00;;;;;;;2.47;1.40;;;;;;;;;;5108240;28;20168;-73
2023/02/03 04:05:25;;;;;;;4.33;1.60;;;;;;;;;;5115722;27;20209;-72
2023/02/03 04:07:51;;;;;;;5.00;1.10;;;;;;;;;;5109945;27;20199;-71
2023/02/03 04:10:33;;;;;;;3.50;1.50;;;;;;;;;;5112114;27;20305;-72
2023/02/03 04:12:58;;;;;;;5.03;0.90;;;;;;;;;;5092316;28;20584;-72
2023/02/03 04:15:23;;;;;;;10.40;1.30;;;;;;;;;;5112911;27;20228;-72
2023/02/03 04:17:49;;;;;;;7.00;1.30;;;;;;;;;;5112246;28;20326;-72
2023/02/03 04:20:14;;;;;;;6.33;1.80;;;;;;;;;;5104603;27;20933;-73
2023/02/03 04:22:40;;;;;;;3.93;1.30;;;;;;;;;;5102016;28;20172;-73
2023/02/03 04:25:05;;;;;;;6.67;1.37;;;;;;;;;;5111272;28;20254;-73
2023/02/03 04:27:30;;;;;;;5.43;1.30;;;;;;;;;;5113781;28;20180;-72
2023/02/03 04:29:56;;;;;;;9.07;1.60;;;;;;;;;;5111028;28;20252;-70
2023/02/03 04:32:21;;;;;;;3.30;1.13;;;;;;;;;;5112131;28;20562;-73
2023/02/03 04:34:46;;;;;;;7.33;1.50;;;;;;;;;;5107974;27;20187;-70
2023/02/03 04:37:11;;;;;;;4.73;1.20;;;;;;;;;;5113667;27;20168;-73
2023/02/03 04:39:37;;;;;;;5.60;1.90;;;;;;;;;;5111780;28;20202;-73
2023/02/03 04:42:02;;;;;;;10.07;1.63;;;;;;;;;;5088609;28;20223;-72
2023/02/03 04:44:27;;;;;;;8.23;1.40;;;;;;;;;;5106826;28;20189;-74
2023/02/03 04:46:53;;;;;;;6.73;1.47;;;;;;;;;;5102224;28;20167;-72
2023/02/03 04:49:18;;;;;;;5.20;1.03;;;;;;;;;;5107931;27;20709;-72
2023/02/03 04:51:43;;;;;;;8.63;1.80;;;;;;;;;;5112305;27;20222;-72
2023/02/03 04:54:09;;;;;;;4.33;2.03;;;;;;;;;;5092416;28;20267;-71
2023/02/03 04:56:34;;;;;;;8.37;2.93;;;;;;;;;;5113983;27;20179;-72
2023/02/03 04:59:00;;;;;;;5.20;1.57;;;;;;;;;;5111339;28;20207;-72
2023/02/03 05:01:25;;;;;;;4.63;1.20;;;;;;;;;;5089609;28;20268;-71
2023/02/03 05:03:50;;;;;;;4.83;1.43;;;;;;;;;;5105400;27;20151;-71
2023/02/03 05:06:15;;;;;;;6.70;1.83;;;;;;;;;;5108126;27;20191;-72
2023/02/03 05:08:40;;;;;;;6.10;1.47;;;;;;;;;;5110732;27;20199;-73
2023/02/03 05:11:06;;;;;;;6.63;1.47;;;;;;;;;;5109935;27;20282;-70
2023/02/03 05:13:31;;;;;;;5.23;1.30;;;;;;;;;;5109650;27;20179;-71
2023/02/03 05:15:56;;;;;;;4.57;1.43;;;;;;;;;;5104160;28;20238;-71
2023/02/03 05:18:21;;;;;;;6.73;1.00;;;;;;;;;;5109403;27;20207;-71
2023/02/03 05:20:46;;;;;;;5.30;1.40;;;;;;;;;;5105508;27;20214;-71
2023/02/03 05:23:12;;;;;;;10.37;2.03;;;;;;;;;;5110599;27;20195;-72
2023/02/03 05:25:37;;;;;;;3.97;1.27;;;;;;;;;;5121777;27;20187;-71
2023/02/03 05:28:02;;;;;;;7.40;1.10;;;;;;;;;;5117550;27;20228;-72
2023/02/03 05:30:27;;;;;;;6.10;1.23;;;;;;;;;;5110702;27;20268;-72
2023/02/03 05:32:52;;;;;;;6.20;1.47;;;;;;;;;;5087682;28;20603;-72
2023/02/03 05:35:18;;;;;;;7.50;1.67;;;;;;;;;;5102188;28;20183;-72
2023/02/03 05:37:44;;;;;;;4.20;1.40;;;;;;;;;;5102636;28;20199;-72
2023/02/03 05:42:53;;;;;;;8.00;2.27;;;;;;;;;;5101552;28;20183;-70
2023/02/03 05:45:19;;;;;;;6.20;1.43;;;;;;;;;;5103944;28;20657;-72
2023/02/03 05:47:44;;;;;;;7.40;1.50;;;;;;;;;;5097928;28;20183;-70
2023/02/03 05:50:09;;;;;;;8.90;1.83;;;;;;;;;;5103361;28;20222;-70
2023/02/03 05:52:34;;;;;;;5.90;1.80;;;;;;;;;;5084914;28;20175;-72
2023/02/03 05:54:59;;;;;;;4.00;1.63;;;;;;;;;;5104363;28;20547;-72
2023/02/03 05:57:25;;;;;;;8.80;2.10;;;;;;;;;;5102259;28;20190;-72
2023/02/03 05:59:50;;;;;;;6.00;1.50;;;;;;;;;;5103439;28;20223;-72
2023/02/03 06:02:15;;;;;;;6.33;1.60;;;;;;;;;;5104825;28;20179;-72
2023/02/03 06:04:40;;;;;;;8.20;2.13;;;;;;;;;;5105949;28;20167;-72
2023/02/03 06:07:05;;;;;;;12.57;2.43;;;;;;;;;;5115822;28;20661;-72
2023/02/03 06:09:31;;;;;;;7.83;1.70;;;;;;;;;;5111010;28;20558;-72
2023/02/03 06:11:56;;;;;;;10.10;2.87;;;;;;;;;;5121674;28;20197;-72
2023/02/03 06:14:21;;;;;;;10.57;1.70;;;;;;;;;;5104236;28;20206;-72
2023/02/03 06:16:46;;;;;;;3.77;1.17;;;;;;;;;;5105234;28;20211;-72
2023/02/03 06:19:11;;;;;;;7.37;1.40;;;;;;;;;;5104071;28;20203;-72
2023/02/03 06:21:37;;;;;;;8.27;1.90;;;;;;;;;;5109671;22;20705;-70
2023/02/03 06:24:02;;;;;;;4.67;1.73;;;;;;;;;;5113192;28;20175;-70
2023/02/03 06:26:27;;;;;;;6.63;1.43;;;;;;;;;;5083547;28;20205;-70
2023/02/03 06:28:53;;;;;;;6.57;1.80;;;;;;;;;;5106179;28;20187;-71
2023/02/03 06:31:18;;;;;;;4.97;1.10;;;;;;;;;;5100439;28;20214;-70
2023/02/03 06:33:43;;;;;;;9.60;1.70;;;;;;;;;;5081454;28;20234;-70
2023/02/03 06:36:08;;;;;;;12.60;2.87;;;;;;;;;;5097435;28;20180;-70
2023/02/03 06:38:33;;;;;;;10.27;1.97;;;;;;;;;;5088742;28;20625;-71
2023/02/03 06:40:59;;;;;;;8.07;1.77;;;;;;;;;;5089891;28;20321;-70
2023/02/03 06:43:24;;;;;;;3.40;1.40;;;;;;;;;;5072449;28;20230;-71
2023/02/03 06:45:49;;;;;;;10.37;2.13;;;;;;;;;;5078681;28;20432;-70
2023/02/03 06:48:14;;;;;;;12.27;2.07;;;;;;;;;;5079402;28;20184;-71
2023/02/03 06:50:40;;;;;;;5.20;1.50;;;;;;;;;;5093432;28;20198;-71
2023/02/03 06:53:05;;;;;;;8.70;1.63;;;;;;;;;;5099399;28;20220;-70
2023/02/03 06:55:30;;;;;;;6.57;1.67;;;;;;;;;;5086770;28;20176;-70
2023/02/03 06:57:55;;;;;;;8.27;1.80;;;;;;;;;;5093431;28;20177;-71
2023/02/03 07:00:21;;;;;;;4.10;1.40;;;;;;;;;;5076939;28;20204;-71
2023/02/03 07:02:52;;;;;;;5.70;2.40;;;;;;;;;;5080492;28;20175;-70
2023/02/03 07:05:17;;;;;;;8.27;1.80;;;;;;;;;;5091544;28;20190;-71
2023/02/03 07:07:42;;;;;;;4.40;1.73;;;;;;;;;;5092691;28;20165;-70
2023/02/03 07:10:07;;;;;;;5.03;2.20;;;;;;;;;;5094316;28;20217;-71
2023/02/03 07:12:33;;;;;;;11.07;2.33;;;;;;;;;;5093561;28;20199;-69
2023/02/03 07:14:58;;;;;;;8.70;1.67;;;;;;;;;;5094354;28;20564;-70
2023/02/03 07:17:23;;;;;;;4.80;1.73;;;;;;;;;;5093995;28;20176;-69
2023/02/03 07:19:48;;;;;;;6.27;2.53;;;;;;;;;;5084557;28;20204;-70
2023/02/03 07:22:14;;;;;;;3.70;1.70;;;;;;;;;;5085946;28;20732;-69
2023/02/03 07:24:39;;;;;;;12.17;2.70;;;;;;;;;;5089309;28;20250;-69
2023/02/03 07:27:04;;;;;;;6.47;1.60;;;;;;;;;;5092387;28;20176;-70
2023/02/03 07:29:29;;;;;;;4.73;1.77;;;;;;;;;;5088833;28;20553;-69
2023/02/03 07:31:55;;;;;;;5.03;1.40;;;;;;;;;;5092387;28;20184;-69
2023/02/03 07:34:20;;;;;;;7.47;1.87;;;;;;;;;;5090070;28;20183;-69
2023/02/03 07:36:45;;;;;;;3.57;1.60;;;;;;;;;;5095629;28;20188;-69
2023/02/03 07:39:10;;;;;;;4.13;1.87;;;;;;;;;;5092604;28;20287;-69
2023/02/03 07:41:35;;;;;;;8.97;3.10;;;;;;;;;;5094301;28;20290;-69
2023/02/03 07:44:01;;;;;;;6.97;1.90;;;;;;;;;;5093484;28;20172;-69
2023/02/03 07:46:26;;;;;;;10.23;2.90;;;;;;;;;;5093432;28;20164;-69
2023/02/03 07:48:51;;;;;;;10.80;2.07;;;;;;;;;;5093582;28;20175;-70
2023/02/03 07:51:16;;;;;;;9.43;1.93;;;;;;;;;;5093705;28;20717;-70
2023/02/03 07:53:42;;;;;;;8.10;2.73;;;;;;;;;;5091785;28;20191;-70
2023/02/03 07:56:07;;;;;;;4.60;1.87;;;;;;;;;;5090431;28;20251;-70
2023/02/03 07:58:32;;;;;;;5.37;1.90;;;;;;;;;;5091500;28;20192;-69
2023/02/03 08:00:57;;;;;;;5.87;2.00;;;;;;;;;;5092110;28;20195;-69
2023/02/03 08:03:23;;;;;;;6.83;2.50;;;;;;;;;;5091358;28;20192;-70
2023/02/03 08:05:48;;;;;;;6.83;1.80;;;;;;;;;;5088705;28;20165;-68
2023/02/03 08:08:13;;;;;;;10.40;2.17;;;;;;;;;;5072760;28;20179;-70
2023/02/03 08:10:39;;;;;;;10.07;2.63;;;;;;;;;;5085983;28;20680;-70
2023/02/03 08:13:04;;;;;;;7.80;2.03;;;;;;;;;;5079619;28;20192;-69
2023/02/03 08:15:29;;;;;;;11.73;2.33;;;;;;;;;;5089430;28;20263;-70
2023/02/03 08:17:54;;;;;;;5.63;2.10;;;;;;;;;;5082950;28;20209;-70
2023/02/03 08:20:20;;;;;;;10.70;3.10;;;;;;;;;;5086769;28;20275;-69
2023/02/03 08:22:45;;;;;;;9.80;3.20;;;;;;;;;;5083600;28;20180;-70
2023/02/03 08:25:11;;;;;;;9.70;2.23;;;;;;;;;;5088604;28;20267;-70
2023/02/03 08:27:36;;;;;;;4.00;1.43;;;;;;;;;;5086138;28;20175;-70
2023/02/03 08:30:02;;;;;;;6.93;1.87;;;;;;;;;;5082892;28;20184;-69
2023/02/03 08:32:27;;;;;;;9.30;2.10;;;;;;;;;;5086462;28;20203;-70
2023/02/03 08:34:52;;;;;;;4.80;1.77;;;;;;;;;;5088426;28;20180;-70
2023/02/03 08:37:19;;;;;;;8.00;2.00;;;;;;;;;;5088008;28;20176;-70
2023/02/03 08:39:44;;;;;;;13.20;2.30;;;;;;;;;;5090801;28;20196;-70
2023/02/03 08:42:10;;;;;;;7.80;1.77;;;;;;;;;;5090225;28;20749;-70
2023/02/03 08:44:35;;;;;;;5.03;1.60;;;;;;;;;;5092344;28;20176;-70
2023/02/03 08:47:00;;;;;;;5.03;1.70;;;;;;;;;;5092656;28;20172;-70
2023/02/03 08:49:26;;;;;;;7.93;1.87;;;;;;;;;;5073746;28;20215;-71
2023/02/03 08:51:52;;;;;;;6.03;1.97;;;;;;;;;;5088764;28;20227;-70
2023/02/03 08:54:17;;;;;;;6.30;1.70;;;;;;;;;;5091006;28;20176;-70
2023/02/03 08:56:43;;;;;;;8.50;2.57;;;;;;;;;;5092483;28;20180;-70
2023/02/03 08:59:08;;;;;;;4.03;1.60;;;;;;;;;;5087539;28;20199;-69
2023/02/03 09:01:33;;;;;;;5.93;1.77;;;;;;;;;;5091187;28;20184;-70
2023/02/03 09:04:00;;;;;;;9.30;2.40;;;;;;;;;;5088421;28;20570;-69
2023/02/03 09:06:26;;;;;;;11.10;1.90;;;;;;;;;;5073582;28;20180;-71
2023/02/03 09:08:51;;;;;;;5.97;1.77;;;;;;;;;;5088677;28;20181;-69
2023/02/03 09:11:17;;;;;;;11.80;2.27;;;;;;;;;;5072420;28;20203;-70
2023/02/03 09:13:46;;;;;;;9.73;3.63;;;;;;;;;;5083795;28;20184;-70
2023/02/03 09:16:12;;;;;;;4.97;1.50;;;;;;;;;;5084010;28;20188;-69
2023/02/03 09:18:38;;;;;;;6.27;1.87;;;;;;;;;;5088749;28;20196;-70
2023/02/03 09:21:04;;;;;;;8.53;1.80;;;;;;;;;;5077722;28;20303;-69
2023/02/03 09:23:29;;;;;;;5.73;1.77;;;;;;;;;;5083150;28;20251;-69
2023/02/03 09:25:55;;;;;;;5.10;1.60;;;;;;;;;;5084919;28;20673;-70
2023/02/03 09:28:20;;;;;;;9.30;2.20;;;;;;;;;;5081869;28;20173;-70
2023/02/03 09:30:46;;;;;;;6.33;2.20;;;;;;;;;;5088795;28;20618;-70
2023/02/03 09:33:11;;;;;;;11.00;1.40;;;;;;;;;;5082588;28;20623;-70
2023/02/03 09:35:36;;;;;;;8.53;1.80;;;;;;;;;;5084267;28;20199;-70
2023/02/03 09:38:02;;;;;;;4.57;1.83;;;;;;;;;;5083172;28;20221;-70
2023/02/03 09:40:29;;;;;;;6.67;1.97;;;;;;;;;;5089594;28;20203;-70
2023/02/03 09:42:57;;;;;;;10.97;3.47;;;;;;;;;;5080504;28;20630;-70
2023/02/03 09:45:22;;;;;;;7.10;1.80;;;;;;;;;;5085978;28;20202;-70
2023/02/03 09:47:52;;;;;;;10.27;1.95;;;;;;;;;;5084598;28;20160;-70
2023/02/03 09:50:23;;;;;;;6.07;1.53;;;;;;;;;;5090582;28;20277;-70
2023/02/03 09:52:49;;;;;;;4.93;1.67;;;;;;;;;;5088453;28;20177;-69
2023/02/03 09:55:35;;;;;;;6.63;1.43;;;;;;;;;;5091352;28;20176;-69
2023/02/03 09:58:14;;;;;;;7.27;1.80;;;;;;;;;;5089351;28;20179;-69
2023/02/03 10:00:44;;;;;;;3.97;1.43;;;;;;;;;;5083458;28;20196;-69
2023/02/03 10:03:28;;;;;;;13.10;1.77;;;;;;;;;;5088780;28;20567;-69
2023/02/03 10:06:06;;;;;;;7.03;1.77;;;;;;;;;;5082434;28;20173;-70
2023/02/03 10:08:31;;;;;;;7.87;1.40;;;;;;;;;;5090683;28;20176;-70
2023/02/03 10:11:08;;;;;;;5.93;1.57;;;;;;;;;;5087774;28;20192;-69
2023/02/03 10:13:40;;;;;;;10.33;1.97;;;;;;;;;;5090560;28;20637;-70
2023/02/03 10:16:25;;;;;;;6.10;2.17;;;;;;;;;;5091085;28;20207;-69
2023/02/03 10:18:52;;;;;;;7.57;2.33;;;;;;;;;;5086220;28;20275;-70
2023/02/03 10:21:30;;;;;;;6.13;1.67;;;;;;;;;;5085621;28;20587;-69
2023/02/03 10:23:57;;;;;;;8.13;2.00;;;;;;;;;;5072503;28;20169;-70
2023/02/03 10:26:24;;;;;;;3.93;1.53;;;;;;;;;;5094790;28;20164;-71
2023/02/03 10:29:10;;;;;;;4.87;1.53;;;;;;;;;;5086699;28;20636;-72
2023/02/03 10:31:36;;;;;;;4.97;1.60;;;;;;;;;;5083439;28;20207;-72
2023/02/03 10:34:12;;;;;;;6.70;1.47;;;;;;;;;;5091100;28;20665;-69
2023/02/03 10:36:56;;;;;;;3.93;1.53;;;;;;;;;;5095003;28;20172;-69
2023/02/03 10:39:21;;;;;;;6.77;1.70;;;;;;;;;;5090264;28;20188;-70
2023/02/03 10:41:46;;;;;;;4.33;1.60;;;;;;;;;;5072215;28;20673;-69
2023/02/03 10:44:13;;;;;;;6.50;1.67;;;;;;;;;;5092803;28;20267;-69
2023/02/03 10:46:39;;;;;;;2.83;1.40;;;;;;;;;;5080190;28;20260;-70
2023/02/03 10:49:04;;;;;;;6.07;1.65;;;;;;;;;;5066431;28;20214;-69
2023/02/03 10:51:35;;;;;;;5.05;1.73;;;;;;;;;;5094262;28;20195;-69
2023/02/03 10:54:01;;;;;;;6.30;1.50;;;;;;;;;;5087696;28;20187;-70
2023/02/03 10:56:29;;;;;;;6.43;1.87;;;;;;;;;;5088080;28;20696;-70
2023/02/03 10:58:55;;;;;;;3.87;1.80;;;;;;;;;;5095222;28;20237;-70
2023/02/03 11:01:24;;;;;;;7.70;2.47;;;;;;;;;;5094462;28;20561;-70
2023/02/03 11:03:58;;;;;;;3.95;1.20;;;;;;;;;;5089575;28;20199;-70
2023/02/03 11:06:24;;;;;;;7.90;1.60;;;;;;;;;;5092370;28;20548;-69
2023/02/03 11:08:50;;;;;;;7.67;1.80;;;;;;;;;;5072161;28;20272;-70
2023/02/03 11:11:21;;;;;;;10.83;1.93;;;;;;;;;;5089910;28;20239;-70
2023/02/03 11:13:51;;;;;;;7.13;1.83;;;;;;;;;;5084854;28;20272;-69
2023/02/03 11:16:18;;;;;;;8.60;1.65;;;;;;;;;;5087623;28;20184;-70
2023/02/03 11:18:57;;;;;;;4.70;1.42;;;;;;;;;;5066829;28;20341;-69
2023/02/03 11:21:30;;;;;;;3.95;2.20;;;;;;;;;;5093448;28;20219;-69
2023/02/03 11:24:13;;;;;;;7.97;1.48;;;;;;;;;;5093279;28;20169;-69
2023/02/03 11:26:44;;;;;;;5.57;1.42;;;;;;;;;;5093980;28;20307;-71
2023/02/03 11:29:15;;;;;;;2.58;1.27;;;;;;;;;;5093630;28;20679;-70
2023/02/03 11:31:45;;;;;;;3.40;1.55;;;;;;;;;;5089366;28;20200;-70
2023/02/03 11:34:15;;;;;;;2.35;1.20;;;;;;;;;;5093878;28;20180;-70
2023/02/03 11:36:40;;;;;;;3.80;1.10;;;;;;;;;;5087728;28;20184;-70
2023/02/03 11:39:24;;;;;;;3.28;1.38;;;;;;;;;;5087609;28;20199;-70
2023/02/03 11:41:49;;;;;;;4.50;1.60;;;;;;;;;;5090285;28;20184;-70
2023/02/03 11:44:19;;;;;;;3.30;1.50;;;;;;;;;;5093754;28;20580;-69
2023/02/03 11:46:46;;;;;;;7.18;1.55;;;;;;;;;;5092302;28;20204;-70
2023/02/03 11:49:40;;;;;;;4.63;1.63;;;;;;;;;;5093031;28;20552;-70
2023/02/03 11:52:16;;;;;;;6.10;1.80;;;;;;;;;;5065083;28;20585;-70
2023/02/03 11:54:54;;;;;;;7.65;2.97;;;;;;;;;;5086138;28;20168;-70
2023/02/03 11:57:33;;;;;;;6.68;2.00;;;;;;;;;;5085368;28;20194;-69
2023/02/03 12:00:09;;;;;;;4.68;1.95;;;;;;;;;;5086012;28;20561;-70
2023/02/03 12:02:42;;;;;;;4.00;1.58;;;;;;;;;;5090670;28;20585;-70
2023/02/03 12:05:11;;;;;;;4.15;1.35;;;;;;;;;;5088878;28;20177;-69
2023/02/03 12:07:36;;;;;;;4.60;1.95;;;;;;;;;;5090724;28;20160;-70
2023/02/03 12:10:20;;;;;;;6.90;1.67;;;;;;;;;;5088827;28;20633;-70
2023/02/03 12:12:51;;;;;;;4.10;1.73;;;;;;;;;;5092773;28;20519;-70
2023/02/03 12:15:16;;;;;;;4.60;1.70;;;;;;;;;;5075564;28;20263;-69
2023/02/03 12:17:57;;;;;;;4.90;1.77;;;;;;;;;;5092560;28;20255;-69
2023/02/03 12:23:02;;;;;;;5.10;1.95;;;;;;;;;;5112180;28;20564;-71
2023/02/03 12:25:27;;;;;;;5.70;1.67;;;;;;;;;;5114580;28;20187;-71
2023/02/03 12:28:02;;;;;;;2.60;1.42;;;;;;;;;;5109375;28;20663;-71
2023/02/03 12:30:31;;;;;;;5.35;1.65;;;;;;;;;;5111690;28;20170;-71
2023/02/03 12:32:59;;;;;;;4.60;1.95;;;;;;;;;;5113241;28;20632;-71
2023/02/03 12:35:36;;;;;;;6.82;1.40;;;;;;;;;;5111591;28;20237;-73
2023/02/03 12:38:05;;;;;;;4.47;1.83;;;;;;;;;;5109050;28;20176;-71
2023/02/03 12:40:30;;;;;;;7.22;2.13;;;;;;;;;;5112361;28;20567;-70
2023/02/03 12:42:59;;;;;;;4.82;1.63;;;;;;;;;;5110399;28;20172;-70
2023/02/03 12:45:33;;;;;;;5.82;1.70;;;;;;;;;;5113165;28;20179;-71
2023/02/03 12:48:12;;;;;;;7.88;1.95;;;;;;;;;;5092892;28;20169;-71
2023/02/03 12:50:48;;;;;;;6.22;1.60;;;;;;;;;;5095929;28;20207;-71
2023/02/03 12:53:15;;;;;;;3.83;1.38;;;;;;;;;;5103371;28;20187;-71
2023/02/03 12:55:42;;;;;;;3.17;1.50;;;;;;;;;;5097465;28;20226;-71
2023/02/03 12:58:19;;;;;;;3.53;1.55;;;;;;;;;;5084548;28;20271;-71
2023/02/03 13:00:46;;;;;;;7.15;1.75;;;;;;;;;;5103037;28;20223;-71
2023/02/03 13:03:30;;;;;;;5.80;1.63;;;;;;;;;;5104788;28;20181;-71
2023/02/03 13:06:15;;;;;;;4.40;1.70;;;;;;;;;;5100808;28;20176;-72
2023/02/03 13:08:54;;;;;;;7.13;2.65;;;;;;;;;;5103141;28;20208;-71
2023/02/03 13:11:27;;;;;;;6.15;2.33;;;;;;;;;;5100946;28;20208;-71
2023/02/03 13:14:00;;;;;;;4.50;1.42;;;;;;;;;;5088903;28;20176;-71
2023/02/03 13:16:29;;;;;;;5.85;1.70;;;;;;;;;;5108016;28;20194;-73
2023/02/03 13:18:57;;;;;;;4.63;1.75;;;;;;;;;;5098776;28;20212;-72
2023/02/03 13:21:22;;;;;;;6.38;2.35;;;;;;;;;;5095558;28;20222;-71
2023/02/03 13:23:50;;;;;;;5.22;2.03;;;;;;;;;;5103975;28;20168;-73
2023/02/03 13:26:47;;;;;;;11.65;2.58;;;;;;;;;;5083645;28;20197;-73
2023/02/03 13:29:18;;;;;;;6.70;2.23;;;;;;;;;;5025326;28;20204;-73
2023/02/03 13:32:06;;;;;;;6.77;2.07;;;;;;;;;;5096560;28;20566;-72
2023/02/03 13:34:40;;;;;;;11.05;2.90;;;;;;;;;;5108112;28;20551;-73
2023/02/03 13:37:11;;;;;;;5.70;2.07;;;;;;;;;;5092746;28;20225;-73
2023/02/03 13:39:36;;;;;;;7.53;2.70;;;;;;;;;;5087918;28;20200;-72
2023/02/03 13:42:08;;;;;;;6.33;2.30;;;;;;;;;;5094861;28;20192;-72
2023/02/03 13:44:35;;;;;;;9.20;2.20;;;;;;;;;;5104752;28;20203;-73
2023/02/03 13:47:01;;;;;;;5.67;1.87;;;;;;;;;;5101106;28;20216;-72
2023/02/03 13:49:28;;;;;;;9.67;2.20;;;;;;;;;;5101905;28;20237;-72
2023/02/03 13:51:53;;;;;;;9.83;2.53;;;;;;;;;;5097409;28;20281;-72
2023/02/03 13:54:24;;;;;;;12.15;2.00;;;;;;;;;;5096622;28;20175;-72
2023/02/03 13:57:12;;;;;;;7.80;1.90;;;;;;;;;;5093839;28;20195;-72
2023/02/03 13:59:41;;;;;;;11.65;3.60;;;;;;;;;;5090713;28;20212;-72
2023/02/03 14:02:18;;;;;;;7.47;2.17;;;;;;;;;;5105638;28;20207;-72
2023/02/03 14:04:44;;;;;;;10.00;2.97;;;;;;;;;;5102722;28;20175;-72
2023/02/03 14:07:28;;;;;;;9.97;2.53;;;;;;;;;;5083939;28;20187;-72
2023/02/03 14:10:11;;;;;;;13.07;2.73;;;;;;;;;;5100025;28;20176;-72
2023/02/03 14:12:39;;;;;;;6.93;2.63;;;;;;;;;;5103297;28;20188;-72
2023/02/03 14:15:21;;;;;;;11.57;3.07;;;;;;;;;;5084102;28;20229;-71
2023/02/03 14:17:46;;;;;;;9.93;2.27;;;;;;;;;;5106700;28;20180;-72
2023/02/03 14:20:24;;;;;;;9.90;2.43;;;;;;;;;;5100104;28;20207;-71
2023/02/03 14:22:50;;;;;;;7.10;3.27;;;;;;;;;;5105884;28;20624;-72
2023/02/03 14:25:17;;;;;;;8.50;2.53;;;;;;;;;;5104525;28;20276;-72
2023/02/03 14:27:42;;;;;;;12.80;2.83;;;;;;;;;;5081299;28;20172;-72
2023/02/03 14:30:08;;;;;;;8.87;2.57;;;;;;;;;;5096749;28;20184;-72
2023/02/03 14:32:53;;;;;;;15.87;2.83;;;;;;;;;;5099735;28;20200;-73
2023/02/03 14:35:20;;;;;;;8.23;2.80;;;;;;;;;;5103473;28;20602;-71
2023/02/03 14:37:53;;;;;;;10.77;2.70;;;;;;;;;;5096817;28;20191;-71
2023/02/03 14:40:28;;;;;;;11.10;3.07;;;;;;;;;;5083923;28;20541;-71
2023/02/03 14:43:08;;;;;;;11.00;3.40;;;;;;;;;;5085997;28;20168;-72
2023/02/03 14:45:52;;;;;;;12.90;2.40;;;;;;;;;;5103977;28;20210;-72
2023/02/03 14:48:36;;;;;;;12.17;2.60;;;;;;;;;;5109438;28;20217;-72
2023/02/03 14:51:21;;;;;;;8.07;3.20;;;;;;;;;;5087687;28;20207;-72
2023/02/03 14:53:57;;;;;;;15.50;2.83;;;;;;;;;;5104712;28;20664;-72